createdAt,value
2022-10-26T00:00:00.375Z,5.10
2022-10-26T00:01:02.766Z,5.10
2022-10-26T00:02:00.494Z,5.10
2022-10-26T00:03:00.330Z,5.10
2022-10-26T00:04:00.305Z,5.10
2022-10-26T00:05:00.349Z,5.10
2022-10-26T00:06:02.612Z,5.10
2022-10-26T00:07:00.316Z,5.10
2022-10-26T00:08:00.765Z,5.10
2022-10-26T00:09:00.330Z,5.10
2022-10-26T00:10:00.349Z,5.10
2022-10-26T00:11:00.346Z,5.10
2022-10-26T00:12:00.323Z,5.10
2022-10-26T00:13:00.447Z,5.10
2022-10-26T00:14:00.322Z,5.10
2022-10-26T00:15:00.309Z,5.10
2022-10-26T00:17:00.363Z,5.10
2022-10-26T00:18:00.305Z,5.10
2022-10-26T00:19:00.364Z,5.10
2022-10-26T00:20:00.318Z,5.10
2022-10-26T00:21:02.345Z,5.10
2022-10-26T00:22:00.347Z,5.10
2022-10-26T00:23:00.310Z,5.10
2022-10-26T00:24:00.497Z,5.10
2022-10-26T00:25:00.310Z,5.10
2022-10-26T00:26:00.544Z,5.10
2022-10-26T00:27:00.361Z,5.10
2022-10-26T00:28:00.319Z,5.10
2022-10-26T00:29:00.331Z,3.40
2022-10-26T00:30:01.250Z,3.40
2022-10-26T00:31:01.498Z,3.40
2022-10-26T00:32:00.310Z,3.40
2022-10-26T00:33:00.341Z,3.40
2022-10-26T00:34:00.319Z,3.40
2022-10-26T00:35:10.451Z,3.40
2022-10-26T00:36:00.334Z,3.40
2022-10-26T00:37:00.341Z,3.40
2022-10-26T00:38:00.416Z,3.40
2022-10-26T00:39:00.316Z,3.40
2022-10-26T00:40:00.454Z,3.40
2022-10-26T00:41:00.476Z,3.40
2022-10-26T00:42:00.306Z,3.40
2022-10-26T00:43:00.317Z,3.40
2022-10-26T00:44:10.211Z,3.40
2022-10-26T00:45:10.228Z,3.40
2022-10-26T00:46:00.887Z,3.40
2022-10-26T00:47:00.352Z,3.40
2022-10-26T00:48:05.384Z,3.40
2022-10-26T00:49:01.653Z,3.40
2022-10-26T00:50:02.579Z,3.40
2022-10-26T00:51:02.285Z,3.40
2022-10-26T00:52:00.535Z,3.40
2022-10-26T00:53:02.376Z,3.40
2022-10-26T00:54:02.071Z,3.40
2022-10-26T00:55:00.576Z,3.40
2022-10-26T00:56:01.279Z,3.40
2022-10-26T00:57:00.417Z,3.40
2022-10-26T00:58:01.306Z,3.40
2022-10-26T00:59:02.388Z,3.40
2022-10-26T01:00:00.577Z,3.40
2022-10-26T01:01:00.337Z,3.40
2022-10-26T01:02:00.427Z,3.40
2022-10-26T01:03:03.555Z,3.40
2022-10-26T01:04:00.638Z,3.40
2022-10-26T01:05:02.046Z,3.40
2022-10-26T01:06:02.319Z,3.40
2022-10-26T01:07:02.450Z,3.40
2022-10-26T01:08:00.978Z,3.40
2022-10-26T01:09:00.340Z,3.40
2022-10-26T01:10:00.526Z,3.40
2022-10-26T01:11:00.594Z,3.40
2022-10-26T01:12:00.402Z,3.40
2022-10-26T01:13:00.800Z,3.40
2022-10-26T01:14:02.210Z,3.40
2022-10-26T01:15:00.629Z,3.40
2022-10-26T01:16:01.338Z,3.40
2022-10-26T01:17:10.204Z,3.40
2022-10-26T01:18:04.395Z,3.40
2022-10-26T01:19:01.323Z,3.40
2022-10-26T01:20:10.222Z,3.40
2022-10-26T01:21:10.209Z,3.40
2022-10-26T01:22:03.638Z,3.40
2022-10-26T01:23:00.306Z,3.40
2022-10-26T01:24:10.242Z,3.40
2022-10-26T01:25:02.617Z,3.40
2022-10-26T01:26:10.215Z,3.40
2022-10-26T01:27:03.601Z,3.40
2022-10-26T01:28:01.889Z,3.40
2022-10-26T01:29:01.319Z,3.80
2022-10-26T01:30:10.204Z,3.80
2022-10-26T01:31:02.454Z,3.80
2022-10-26T01:32:06.794Z,3.80
2022-10-26T01:33:10.216Z,3.80
2022-10-26T01:34:10.207Z,3.80
2022-10-26T01:35:10.232Z,3.80
2022-10-26T01:36:05.252Z,3.80
2022-10-26T01:37:10.213Z,3.80
2022-10-26T01:38:05.320Z,3.80
2022-10-26T01:39:07.925Z,3.80
2022-10-26T01:40:08.579Z,3.80
2022-10-26T01:41:10.197Z,3.80
2022-10-26T01:42:02.371Z,3.80
2022-10-26T01:43:05.924Z,3.80
2022-10-26T01:44:03.143Z,3.80
2022-10-26T01:45:03.591Z,3.80
2022-10-26T01:46:02.476Z,3.80
2022-10-26T01:47:01.184Z,3.80
2022-10-26T01:48:01.670Z,3.80
2022-10-26T01:51:01.325Z,3.80
2022-10-26T01:53:00.350Z,3.80
2022-10-26T01:55:04.849Z,3.80
2022-10-26T01:56:00.651Z,3.80
2022-10-26T01:57:02.850Z,3.80
2022-10-26T01:58:06.435Z,3.80
2022-10-26T01:59:00.294Z,3.60
2022-10-26T02:00:04.682Z,3.60
2022-10-26T02:02:10.205Z,3.60
2022-10-26T02:03:00.287Z,3.60
2022-10-26T02:04:10.219Z,3.60
2022-10-26T02:05:17.839Z,3.60
2022-10-26T02:06:10.213Z,3.60
2022-10-26T02:07:02.941Z,3.60
2022-10-26T02:08:07.864Z,3.60
2022-10-26T02:09:01.315Z,3.60
2022-10-26T02:10:10.231Z,3.60
2022-10-26T02:11:07.812Z,3.60
2022-10-26T02:12:04.472Z,3.60
2022-10-26T02:13:05.746Z,3.60
2022-10-26T02:14:10.255Z,3.60
2022-10-26T02:15:08.205Z,3.60
2022-10-26T02:16:10.198Z,3.60
2022-10-26T02:17:05.765Z,3.60
2022-10-26T02:18:06.962Z,3.60
2022-10-26T02:19:02.096Z,3.60
2022-10-26T02:20:04.557Z,3.60
2022-10-26T02:21:04.498Z,3.60
2022-10-26T02:22:05.427Z,3.60
2022-10-26T02:23:03.100Z,3.60
2022-10-26T02:24:02.291Z,3.60
2022-10-26T02:25:03.443Z,3.60
2022-10-26T02:26:02.200Z,3.60
2022-10-26T02:27:01.913Z,3.60
2022-10-26T02:28:04.831Z,3.60
2022-10-26T02:30:09.550Z,4.30
2022-10-26T02:32:01.304Z,4.30
2022-10-26T02:33:03.100Z,4.30
2022-10-26T02:34:02.223Z,4.30
2022-10-26T02:35:01.493Z,4.30
2022-10-26T02:36:01.888Z,4.30
2022-10-26T02:38:01.614Z,4.30
2022-10-26T02:40:02.110Z,4.30
2022-10-26T02:41:01.743Z,4.30
2022-10-26T02:42:01.895Z,4.30
2022-10-26T02:43:04.456Z,4.30
2022-10-26T02:44:06.711Z,4.30
2022-10-26T02:45:05.646Z,4.30
2022-10-26T02:46:04.615Z,4.30
2022-10-26T02:47:01.035Z,4.30
2022-10-26T02:48:00.489Z,4.30
2022-10-26T02:49:00.558Z,4.30
2022-10-26T02:51:07.298Z,4.30
2022-10-26T02:52:02.981Z,4.30
2022-10-26T02:53:10.230Z,4.30
2022-10-26T02:54:00.286Z,4.30
2022-10-26T02:55:07.757Z,4.30
2022-10-26T02:57:04.199Z,4.30
2022-10-26T02:58:03.296Z,4.30
2022-10-26T02:59:03.392Z,3.80
2022-10-26T03:00:00.844Z,3.80
2022-10-26T03:01:00.415Z,3.80
2022-10-26T03:02:00.916Z,3.80
2022-10-26T03:03:00.514Z,3.80
2022-10-26T03:05:10.263Z,3.80
2022-10-26T03:06:00.305Z,3.80
2022-10-26T03:07:00.689Z,3.80
2022-10-26T03:08:00.307Z,3.80
2022-10-26T03:09:00.339Z,3.80
2022-10-26T03:10:00.312Z,3.80
2022-10-26T03:11:00.415Z,3.80
2022-10-26T03:12:00.439Z,3.80
2022-10-26T03:13:01.007Z,3.80
2022-10-26T03:14:00.298Z,3.80
2022-10-26T03:15:00.441Z,3.80
2022-10-26T03:16:01.698Z,3.80
2022-10-26T03:17:00.388Z,3.80
2022-10-26T03:19:00.315Z,3.80
2022-10-26T03:21:00.339Z,3.80
2022-10-26T03:22:00.314Z,3.80
2022-10-26T03:23:00.327Z,3.80
2022-10-26T03:24:00.344Z,3.80
2022-10-26T03:25:00.504Z,3.80
2022-10-26T03:26:00.307Z,3.80
2022-10-26T03:27:02.246Z,3.80
2022-10-26T03:28:01.592Z,3.80
2022-10-26T03:29:00.388Z,3.80
2022-10-26T03:30:00.348Z,3.80
2022-10-26T03:31:00.352Z,3.80
2022-10-26T03:33:00.340Z,3.80
2022-10-26T03:34:00.298Z,3.80
2022-10-26T03:35:00.390Z,3.80
2022-10-26T03:36:00.303Z,3.80
2022-10-26T03:37:00.434Z,3.80
2022-10-26T03:38:00.347Z,3.80
2022-10-26T03:39:00.349Z,3.80
2022-10-26T03:40:00.338Z,3.80
2022-10-26T03:41:00.352Z,3.80
2022-10-26T03:42:00.386Z,3.80
2022-10-26T03:43:00.542Z,3.80
2022-10-26T03:44:00.305Z,3.80
2022-10-26T03:45:00.415Z,3.80
2022-10-26T03:46:00.325Z,3.80
2022-10-26T03:47:00.319Z,3.80
2022-10-26T03:48:00.328Z,3.80
2022-10-26T03:49:00.306Z,3.80
2022-10-26T03:50:00.412Z,3.80
2022-10-26T03:51:05.959Z,3.80
2022-10-26T03:52:00.414Z,3.80
2022-10-26T03:53:00.402Z,3.80
2022-10-26T03:54:00.316Z,3.80
2022-10-26T03:55:00.330Z,3.80
2022-10-26T03:56:00.300Z,3.80
2022-10-26T03:57:00.325Z,3.80
2022-10-26T03:58:00.321Z,3.80
2022-10-26T03:59:00.331Z,4.70
2022-10-26T04:00:00.381Z,4.70
2022-10-26T04:01:00.326Z,4.70
2022-10-26T04:02:00.431Z,4.70
2022-10-26T04:03:00.352Z,4.70
2022-10-26T04:04:00.378Z,4.70
2022-10-26T04:05:00.421Z,4.70
2022-10-26T04:06:02.673Z,4.70
2022-10-26T04:08:00.819Z,4.70
2022-10-26T04:09:00.356Z,4.70
2022-10-26T04:10:04.448Z,4.70
2022-10-26T04:11:03.713Z,4.70
2022-10-26T04:12:00.663Z,4.70
2022-10-26T04:13:00.306Z,4.70
2022-10-26T04:14:00.324Z,4.70
2022-10-26T04:15:00.509Z,4.70
2022-10-26T04:17:00.315Z,4.70
2022-10-26T04:18:01.312Z,4.70
2022-10-26T04:19:00.354Z,4.70
2022-10-26T04:21:01.291Z,4.70
2022-10-26T04:22:00.339Z,4.70
2022-10-26T04:23:01.579Z,4.70
2022-10-26T04:24:00.924Z,4.70
2022-10-26T04:25:00.315Z,4.70
2022-10-26T04:26:00.649Z,4.70
2022-10-26T04:27:00.312Z,4.70
2022-10-26T04:28:03.874Z,4.70
2022-10-26T04:29:00.377Z,4.20
2022-10-26T04:30:00.422Z,4.20
2022-10-26T04:31:00.719Z,4.20
2022-10-26T04:32:01.331Z,4.20
2022-10-26T04:33:00.683Z,4.20
2022-10-26T04:34:00.430Z,4.20
2022-10-26T04:35:00.322Z,4.20
2022-10-26T04:36:00.626Z,4.20
2022-10-26T04:37:00.394Z,4.20
2022-10-26T04:38:01.169Z,4.20
2022-10-26T04:39:00.397Z,4.20
2022-10-26T04:40:00.430Z,4.20
2022-10-26T04:41:00.409Z,4.20
2022-10-26T04:42:00.300Z,4.20
2022-10-26T04:43:00.624Z,4.20
2022-10-26T04:44:00.306Z,4.20
2022-10-26T04:45:00.317Z,4.20
2022-10-26T04:46:00.307Z,4.20
2022-10-26T04:47:00.314Z,4.20
2022-10-26T04:48:00.320Z,4.20
2022-10-26T04:49:00.317Z,4.20
2022-10-26T04:50:00.320Z,4.20
2022-10-26T04:51:00.780Z,4.20
2022-10-26T04:52:00.467Z,4.20
2022-10-26T04:53:00.609Z,4.20
2022-10-26T04:54:00.333Z,4.20
2022-10-26T04:55:00.701Z,4.20
2022-10-26T04:56:00.657Z,4.20
2022-10-26T04:57:00.303Z,4.20
2022-10-26T04:58:01.609Z,4.20
2022-10-26T04:59:00.417Z,3.90
2022-10-26T05:00:00.990Z,3.90
2022-10-26T05:01:00.997Z,3.90
2022-10-26T05:02:00.480Z,3.90
2022-10-26T05:03:01.651Z,3.90
2022-10-26T05:04:00.313Z,3.90
2022-10-26T05:05:00.395Z,3.90
2022-10-26T05:06:00.361Z,3.90
2022-10-26T05:07:00.311Z,3.90
2022-10-26T05:08:00.455Z,3.90
2022-10-26T05:09:00.991Z,3.90
2022-10-26T05:10:00.366Z,3.90
2022-10-26T05:11:00.293Z,3.90
2022-10-26T05:12:00.320Z,3.90
2022-10-26T05:13:00.576Z,3.90
2022-10-26T05:14:00.326Z,3.90
2022-10-26T05:15:02.962Z,3.90
2022-10-26T05:16:00.302Z,3.90
2022-10-26T05:17:00.410Z,3.90
2022-10-26T05:18:01.419Z,3.90
2022-10-26T05:19:00.379Z,3.90
2022-10-26T05:20:00.389Z,3.90
2022-10-26T05:21:00.309Z,3.90
2022-10-26T05:22:00.307Z,3.90
2022-10-26T05:23:01.506Z,3.90
2022-10-26T05:24:00.312Z,3.90
2022-10-26T05:25:00.412Z,3.90
2022-10-26T05:26:00.328Z,3.90
2022-10-26T05:27:00.360Z,3.90
2022-10-26T05:28:01.606Z,3.90
2022-10-26T05:29:00.369Z,3.30
2022-10-26T05:30:00.362Z,3.30
2022-10-26T05:31:00.313Z,3.30
2022-10-26T05:32:00.316Z,3.30
2022-10-26T05:33:00.816Z,3.30
2022-10-26T05:34:00.333Z,3.30
2022-10-26T05:35:00.352Z,3.30
2022-10-26T05:36:00.336Z,3.30
2022-10-26T05:37:00.303Z,3.30
2022-10-26T05:38:05.643Z,3.30
2022-10-26T05:39:00.358Z,3.30
2022-10-26T05:40:00.351Z,3.30
2022-10-26T05:41:00.332Z,3.30
2022-10-26T05:42:00.304Z,3.30
2022-10-26T05:43:00.458Z,3.30
2022-10-26T05:44:00.305Z,3.30
2022-10-26T05:45:00.315Z,3.30
2022-10-26T05:46:00.421Z,3.30
2022-10-26T05:47:00.339Z,3.30
2022-10-26T05:48:02.771Z,3.30
2022-10-26T05:49:00.352Z,3.30
2022-10-26T05:50:00.337Z,3.30
2022-10-26T05:51:00.875Z,3.30
2022-10-26T05:52:00.309Z,3.30
2022-10-26T05:53:00.420Z,3.30
2022-10-26T05:54:00.312Z,3.30
2022-10-26T05:55:00.387Z,3.30
2022-10-26T05:56:00.503Z,3.30
2022-10-26T05:57:00.396Z,3.30
2022-10-26T05:58:00.472Z,3.30
2022-10-26T05:59:00.550Z,3.50
2022-10-26T06:00:00.721Z,3.50
2022-10-26T06:01:08.178Z,3.50
2022-10-26T06:02:01.437Z,3.50
2022-10-26T06:03:06.540Z,3.50
2022-10-26T06:04:00.294Z,3.50
2022-10-26T06:05:03.125Z,3.50
2022-10-26T06:06:02.651Z,3.50
2022-10-26T06:07:00.934Z,3.50
2022-10-26T06:08:00.439Z,3.50
2022-10-26T06:09:00.485Z,3.50
2022-10-26T06:10:00.441Z,3.50
2022-10-26T06:11:00.498Z,3.50
2022-10-26T06:12:00.539Z,3.50
2022-10-26T06:13:00.521Z,3.50
2022-10-26T06:14:00.403Z,3.50
2022-10-26T06:15:00.543Z,3.50
2022-10-26T06:16:01.339Z,3.50
2022-10-26T06:17:10.240Z,3.50
2022-10-26T06:18:10.228Z,3.50
2022-10-26T06:19:10.235Z,3.50
2022-10-26T06:20:10.417Z,3.50
2022-10-26T06:21:00.303Z,3.50
2022-10-26T06:22:01.385Z,3.50
2022-10-26T06:23:10.245Z,3.50
2022-10-26T06:24:00.288Z,3.50
2022-10-26T06:25:10.305Z,3.50
2022-10-26T06:26:03.728Z,3.50
2022-10-26T06:27:10.225Z,3.50
2022-10-26T06:28:10.197Z,3.50
2022-10-26T06:29:01.322Z,2.80
2022-10-26T06:30:02.133Z,2.80
2022-10-26T06:31:00.439Z,2.80
2022-10-26T06:32:00.626Z,2.80
2022-10-26T06:33:05.828Z,2.80
2022-10-26T06:34:00.429Z,2.80
2022-10-26T06:35:07.913Z,2.80
2022-10-26T06:36:10.214Z,2.80
2022-10-26T06:37:00.790Z,2.80
2022-10-26T06:38:02.194Z,2.80
2022-10-26T06:39:01.781Z,2.80
2022-10-26T06:40:01.227Z,2.80
2022-10-26T06:41:00.545Z,2.80
2022-10-26T06:42:00.574Z,2.80
2022-10-26T06:43:00.414Z,2.80
2022-10-26T06:44:00.580Z,2.80
2022-10-26T06:45:00.466Z,2.80
2022-10-26T06:46:07.793Z,2.80
2022-10-26T06:47:01.313Z,2.80
2022-10-26T06:48:06.490Z,2.80
2022-10-26T06:49:00.314Z,2.80
2022-10-26T06:50:03.801Z,2.80
2022-10-26T06:51:00.436Z,2.80
2022-10-26T06:52:10.221Z,2.80
2022-10-26T06:53:05.559Z,2.80
2022-10-26T06:54:10.194Z,2.80
2022-10-26T06:55:00.559Z,2.80
2022-10-26T06:56:00.630Z,2.80
2022-10-26T06:57:00.395Z,2.80
2022-10-26T06:58:00.932Z,2.80
2022-10-26T06:59:07.013Z,3.60
2022-10-26T07:00:04.220Z,3.60
2022-10-26T07:01:00.673Z,3.60
2022-10-26T07:02:02.977Z,3.60
2022-10-26T07:03:00.425Z,3.60
2022-10-26T07:04:00.312Z,3.60
2022-10-26T07:05:00.326Z,3.60
2022-10-26T07:06:00.323Z,3.60
2022-10-26T07:07:00.329Z,3.60
2022-10-26T07:08:00.518Z,3.60
2022-10-26T07:09:00.324Z,3.60
2022-10-26T07:10:00.305Z,3.60
2022-10-26T07:11:00.472Z,3.60
2022-10-26T07:12:00.370Z,3.60
2022-10-26T07:13:00.354Z,3.60
2022-10-26T07:14:00.316Z,3.60
2022-10-26T07:15:00.424Z,3.60
2022-10-26T07:16:00.304Z,3.60
2022-10-26T07:17:00.700Z,3.60
2022-10-26T07:18:00.299Z,3.60
2022-10-26T07:19:00.397Z,3.60
2022-10-26T07:20:00.303Z,3.60
2022-10-26T07:21:00.322Z,3.60
2022-10-26T07:22:00.538Z,3.60
2022-10-26T07:23:00.465Z,3.60
2022-10-26T07:24:00.333Z,3.60
2022-10-26T07:25:02.964Z,3.60
2022-10-26T07:26:00.322Z,3.60
2022-10-26T07:27:00.333Z,3.60
2022-10-26T07:28:00.376Z,3.60
2022-10-26T07:29:00.314Z,3.20
2022-10-26T07:30:00.818Z,3.20
2022-10-26T07:31:00.377Z,3.20
2022-10-26T07:32:00.333Z,3.20
2022-10-26T07:33:01.250Z,3.20
2022-10-26T07:34:00.332Z,3.20
2022-10-26T07:35:00.312Z,3.20
2022-10-26T07:36:00.305Z,3.20
2022-10-26T07:37:00.324Z,3.20
2022-10-26T07:38:00.351Z,3.20
2022-10-26T07:39:00.381Z,3.20
2022-10-26T07:40:05.561Z,3.20
2022-10-26T07:41:01.222Z,3.20
2022-10-26T07:42:00.323Z,3.20
2022-10-26T07:43:00.343Z,3.20
2022-10-26T07:44:00.313Z,3.20
2022-10-26T07:45:00.353Z,3.20
2022-10-26T07:46:00.314Z,3.20
2022-10-26T07:47:00.313Z,3.20
2022-10-26T07:48:00.369Z,3.20
2022-10-26T07:49:00.319Z,3.20
2022-10-26T07:50:00.328Z,3.20
2022-10-26T07:51:02.824Z,3.20
2022-10-26T07:52:00.404Z,3.20
2022-10-26T07:53:00.304Z,3.20
2022-10-26T07:54:00.344Z,3.20
2022-10-26T07:55:00.359Z,3.20
2022-10-26T07:56:00.306Z,3.20
2022-10-26T07:57:00.345Z,3.20
2022-10-26T07:58:00.673Z,3.20
2022-10-26T07:59:00.359Z,2.80
2022-10-26T08:00:00.470Z,2.80
2022-10-26T08:01:08.552Z,2.80
2022-10-26T08:02:00.445Z,2.80
2022-10-26T08:03:00.385Z,2.80
2022-10-26T08:04:00.336Z,2.80
2022-10-26T08:05:00.542Z,2.80
2022-10-26T08:06:00.735Z,2.80
2022-10-26T08:07:00.308Z,2.80
2022-10-26T08:08:00.292Z,2.80
2022-10-26T08:09:00.353Z,2.80
2022-10-26T08:10:00.330Z,2.80
2022-10-26T08:11:00.330Z,2.80
2022-10-26T08:12:00.305Z,2.80
2022-10-26T08:13:00.318Z,2.80
2022-10-26T08:14:00.323Z,2.80
2022-10-26T08:15:00.320Z,2.80
2022-10-26T08:16:01.556Z,2.80
2022-10-26T08:17:00.304Z,2.80
2022-10-26T08:18:00.301Z,2.80
2022-10-26T08:19:00.313Z,2.80
2022-10-26T08:20:00.368Z,2.80
2022-10-26T08:21:10.674Z,2.80
2022-10-26T08:22:00.305Z,2.80
2022-10-26T08:23:00.422Z,2.80
2022-10-26T08:24:00.301Z,2.80
2022-10-26T08:25:00.339Z,2.80
2022-10-26T08:26:00.891Z,2.80
2022-10-26T08:27:00.311Z,2.80
2022-10-26T08:28:01.279Z,2.80
2022-10-26T08:29:00.317Z,3.20
2022-10-26T08:30:00.315Z,3.20
2022-10-26T08:31:00.387Z,3.20
2022-10-26T08:32:00.318Z,3.20
2022-10-26T08:33:01.134Z,3.20
2022-10-26T08:34:00.305Z,3.20
2022-10-26T08:35:00.606Z,3.20
2022-10-26T08:36:01.453Z,3.20
2022-10-26T08:37:00.340Z,3.20
2022-10-26T08:38:00.350Z,3.20
2022-10-26T08:40:03.169Z,3.20
2022-10-26T08:41:05.939Z,3.20
2022-10-26T08:42:03.276Z,3.20
2022-10-26T08:43:04.509Z,3.20
2022-10-26T08:44:04.480Z,3.20
2022-10-26T08:45:02.166Z,3.20
2022-10-26T08:46:06.789Z,3.20
2022-10-26T08:47:05.427Z,3.20
2022-10-26T08:48:03.662Z,3.20
2022-10-26T08:49:10.210Z,3.20
2022-10-26T08:50:04.872Z,3.20
2022-10-26T08:51:10.208Z,3.20
2022-10-26T08:52:01.470Z,3.20
2022-10-26T08:53:03.587Z,3.20
2022-10-26T08:54:07.839Z,3.20
2022-10-26T08:55:01.798Z,3.20
2022-10-26T08:56:06.137Z,3.20
2022-10-26T08:57:03.393Z,3.20
2022-10-26T08:58:01.013Z,3.20
2022-10-26T08:59:10.290Z,3.40
2022-10-26T09:00:01.358Z,3.40
2022-10-26T09:01:00.386Z,3.40
2022-10-26T09:02:00.521Z,3.40
2022-10-26T09:03:00.297Z,3.40
2022-10-26T09:05:00.468Z,3.40
2022-10-26T09:06:01.414Z,3.40
2022-10-26T09:07:01.325Z,3.40
2022-10-26T09:08:00.291Z,3.40
2022-10-26T09:09:10.293Z,3.40
2022-10-26T09:10:11.249Z,3.40
2022-10-26T09:11:00.305Z,3.40
2022-10-26T09:12:03.642Z,3.40
2022-10-26T09:13:01.313Z,3.40
2022-10-26T09:14:08.966Z,3.40
2022-10-26T09:15:07.816Z,3.40
2022-10-26T09:16:10.261Z,3.40
2022-10-26T09:17:10.245Z,3.40
2022-10-26T09:18:10.256Z,3.40
2022-10-26T09:19:10.256Z,3.40
2022-10-26T09:20:01.319Z,3.40
2022-10-26T09:21:04.570Z,3.40
2022-10-26T09:22:06.110Z,3.40
2022-10-26T09:23:00.314Z,3.40
2022-10-26T09:24:04.421Z,3.40
2022-10-26T09:25:07.681Z,3.40
2022-10-26T09:26:01.123Z,3.40
2022-10-26T09:28:00.963Z,3.40
2022-10-26T09:29:02.275Z,3.70
2022-10-26T09:30:10.307Z,3.70
2022-10-26T09:31:00.750Z,3.70
2022-10-26T09:32:02.159Z,3.70
2022-10-26T09:33:10.267Z,3.70
2022-10-26T09:34:04.170Z,3.70
2022-10-26T09:35:03.387Z,3.70
2022-10-26T09:36:01.964Z,3.70
2022-10-26T09:37:10.264Z,3.70
2022-10-26T09:38:05.263Z,3.70
2022-10-26T09:39:03.255Z,3.70
2022-10-26T09:40:10.302Z,3.70
2022-10-26T09:41:07.876Z,3.70
2022-10-26T09:42:09.359Z,3.70
2022-10-26T09:43:03.240Z,3.70
2022-10-26T09:44:10.298Z,3.70
2022-10-26T09:45:04.828Z,3.70
2022-10-26T09:46:00.299Z,3.70
2022-10-26T09:47:01.317Z,3.70
2022-10-26T09:48:09.574Z,3.70
2022-10-26T09:50:05.980Z,3.70
2022-10-26T09:51:03.755Z,3.70
2022-10-26T09:52:00.426Z,3.70
2022-10-26T09:53:00.550Z,3.70
2022-10-26T09:54:00.319Z,3.70
2022-10-26T09:55:00.314Z,3.70
2022-10-26T09:56:03.143Z,3.70
2022-10-26T09:57:01.369Z,3.70
2022-10-26T09:58:02.324Z,3.70
2022-10-26T09:59:03.832Z,2.50
2022-10-26T10:00:00.403Z,2.50
2022-10-26T10:01:00.436Z,2.50
2022-10-26T10:02:00.556Z,2.50
2022-10-26T10:03:00.353Z,2.50
2022-10-26T10:04:09.235Z,2.50
2022-10-26T10:05:00.757Z,2.50
2022-10-26T10:06:10.283Z,2.50
2022-10-26T10:07:00.295Z,2.50
2022-10-26T10:08:09.251Z,2.50
2022-10-26T10:09:10.260Z,2.50
2022-10-26T10:10:08.631Z,2.50
2022-10-26T10:11:02.661Z,2.50
2022-10-26T10:12:01.598Z,2.50
2022-10-26T10:13:10.256Z,2.50
2022-10-26T10:14:05.580Z,2.50
2022-10-26T10:15:00.437Z,2.50
2022-10-26T10:16:05.423Z,2.50
2022-10-26T10:17:01.682Z,2.50
2022-10-26T10:18:00.306Z,2.50
2022-10-26T10:19:00.683Z,2.50
2022-10-26T10:20:08.116Z,2.50
2022-10-26T10:21:00.499Z,2.50
2022-10-26T10:22:07.559Z,2.50
2022-10-26T10:23:01.171Z,2.50
2022-10-26T10:24:00.332Z,2.50
2022-10-26T10:25:00.903Z,2.50
2022-10-26T10:26:08.818Z,2.50
2022-10-26T10:27:10.200Z,2.50
2022-10-26T10:28:00.873Z,2.50
2022-10-26T10:29:00.410Z,2.10
2022-10-26T10:30:10.211Z,2.10
2022-10-26T10:31:01.686Z,2.10
2022-10-26T10:32:01.562Z,2.10
2022-10-26T10:33:10.198Z,2.10
2022-10-26T10:34:10.194Z,2.10
2022-10-26T10:35:00.499Z,2.10
2022-10-26T10:36:01.136Z,2.10
2022-10-26T10:37:00.688Z,2.10
2022-10-26T10:38:00.382Z,2.10
2022-10-26T10:39:00.717Z,2.10
2022-10-26T10:40:03.164Z,2.10
2022-10-26T10:41:00.336Z,2.10
2022-10-26T10:42:01.089Z,2.10
2022-10-26T10:43:10.198Z,2.10
2022-10-26T10:44:07.709Z,2.10
2022-10-26T10:45:00.617Z,2.10
2022-10-26T10:46:00.557Z,2.10
2022-10-26T10:47:02.707Z,2.10
2022-10-26T10:48:02.515Z,2.10
2022-10-26T10:49:01.966Z,2.10
2022-10-26T10:50:01.792Z,2.10
2022-10-26T10:51:04.041Z,2.10
2022-10-26T10:52:00.345Z,2.10
2022-10-26T10:53:10.209Z,2.10
2022-10-26T10:54:00.492Z,2.10
2022-10-26T10:55:01.318Z,2.10
2022-10-26T10:56:07.749Z,2.10
2022-10-26T10:57:10.245Z,2.10
2022-10-26T10:58:03.636Z,2.10
2022-10-26T10:59:10.199Z,2.50
2022-10-26T11:00:03.043Z,2.50
2022-10-26T11:01:00.829Z,2.50
2022-10-26T11:02:10.371Z,2.50
2022-10-26T11:03:10.216Z,2.50
2022-10-26T11:04:10.266Z,2.50
2022-10-26T11:05:01.317Z,2.50
2022-10-26T11:06:05.879Z,2.50
2022-10-26T11:07:02.550Z,2.50
2022-10-26T11:08:04.029Z,2.50
2022-10-26T11:09:00.302Z,2.50
2022-10-26T11:10:02.475Z,2.50
2022-10-26T11:11:03.514Z,2.50
2022-10-26T11:12:09.253Z,2.50
2022-10-26T11:13:03.998Z,2.50
2022-10-26T11:14:07.886Z,2.50
2022-10-26T11:15:02.766Z,2.50
2022-10-26T11:16:04.599Z,2.50
2022-10-26T11:17:04.478Z,2.50
2022-10-26T11:18:06.714Z,2.50
2022-10-26T11:19:04.941Z,2.50
2022-10-26T11:20:05.489Z,2.50
2022-10-26T11:21:04.929Z,2.50
2022-10-26T11:22:01.836Z,2.50
2022-10-26T11:23:10.202Z,2.50
2022-10-26T11:24:00.309Z,2.50
2022-10-26T11:25:04.746Z,2.50
2022-10-26T11:26:10.213Z,2.50
2022-10-26T11:27:08.217Z,2.50
2022-10-26T11:28:04.824Z,2.50
2022-10-26T11:29:00.335Z,2.40
2022-10-26T11:30:04.886Z,2.40
2022-10-26T11:31:02.546Z,2.40
2022-10-26T11:32:06.090Z,2.40
2022-10-26T11:33:01.309Z,2.40
2022-10-26T11:34:10.206Z,2.40
2022-10-26T11:35:10.200Z,2.40
2022-10-26T11:36:05.060Z,2.40
2022-10-26T11:37:04.758Z,2.40
2022-10-26T11:38:09.059Z,2.40
2022-10-26T11:39:07.920Z,2.40
2022-10-26T11:40:01.713Z,2.40
2022-10-26T11:41:10.209Z,2.40
2022-10-26T11:42:08.387Z,2.40
2022-10-26T11:43:01.314Z,2.40
2022-10-26T11:44:00.299Z,2.40
2022-10-26T11:45:00.302Z,2.40
2022-10-26T11:46:04.202Z,2.40
2022-10-26T11:47:02.749Z,2.40
2022-10-26T11:48:05.500Z,2.40
2022-10-26T11:49:00.286Z,2.40
2022-10-26T11:50:03.673Z,2.40
2022-10-26T11:51:00.619Z,2.40
2022-10-26T11:52:09.425Z,2.40
2022-10-26T11:53:10.205Z,2.40
2022-10-26T11:54:03.666Z,2.40
2022-10-26T11:55:00.954Z,2.40
2022-10-26T11:56:02.084Z,2.40
2022-10-26T11:57:01.291Z,2.40
2022-10-26T11:58:01.232Z,2.40
2022-10-26T11:59:03.269Z,3.90
2022-10-26T12:00:02.849Z,3.90
2022-10-26T12:01:08.061Z,3.90
2022-10-26T12:02:03.553Z,3.90
2022-10-26T12:03:03.034Z,3.90
2022-10-26T12:04:02.292Z,3.90
2022-10-26T12:05:10.202Z,3.90
2022-10-26T12:06:00.336Z,3.90
2022-10-26T12:07:02.811Z,3.90
2022-10-26T12:08:04.480Z,3.90
2022-10-26T12:09:05.952Z,3.90
2022-10-26T12:10:01.686Z,3.90
2022-10-26T12:11:00.345Z,3.90
2022-10-26T12:12:01.341Z,3.90
2022-10-26T12:13:08.934Z,3.90
2022-10-26T12:14:10.216Z,3.90
2022-10-26T12:15:10.225Z,3.90
2022-10-26T12:16:08.148Z,3.90
2022-10-26T12:17:07.739Z,3.90
2022-10-26T12:18:08.149Z,3.90
2022-10-26T12:19:04.222Z,3.90
2022-10-26T12:20:05.327Z,3.90
2022-10-26T12:21:01.543Z,3.90
2022-10-26T12:22:01.070Z,3.90
2022-10-26T12:23:02.342Z,3.90
2022-10-26T12:24:10.206Z,3.90
2022-10-26T12:25:05.534Z,3.90
2022-10-26T12:26:10.201Z,3.90
2022-10-26T12:27:01.760Z,3.90
2022-10-26T12:28:00.332Z,3.90
2022-10-26T12:29:01.303Z,3.30
2022-10-26T12:30:10.323Z,3.30
2022-10-26T12:31:10.190Z,3.30
2022-10-26T12:32:00.321Z,3.30
2022-10-26T12:33:01.375Z,3.30
2022-10-26T12:34:00.427Z,3.30
2022-10-26T12:35:01.337Z,3.30
2022-10-26T12:36:00.331Z,3.30
2022-10-26T12:37:00.308Z,3.30
2022-10-26T12:38:01.700Z,3.30
2022-10-26T12:39:00.381Z,3.30
2022-10-26T12:40:10.191Z,3.30
2022-10-26T12:41:03.648Z,3.30
2022-10-26T12:42:03.661Z,3.30
2022-10-26T12:43:10.193Z,3.30
2022-10-26T12:44:04.796Z,3.30
2022-10-26T12:45:06.334Z,3.30
2022-10-26T12:46:07.785Z,3.30
2022-10-26T12:47:00.468Z,3.30
2022-10-26T12:48:07.019Z,3.30
2022-10-26T12:49:00.309Z,3.30
2022-10-26T12:50:01.332Z,3.30
2022-10-26T12:51:10.208Z,3.30
2022-10-26T12:53:10.222Z,3.30
2022-10-26T12:54:00.280Z,3.30
2022-10-26T12:55:10.206Z,3.30
2022-10-26T12:56:03.509Z,3.30
2022-10-26T12:57:10.202Z,3.30
2022-10-26T12:58:10.205Z,3.30
2022-10-26T12:59:07.760Z,4.20
2022-10-26T13:00:03.476Z,4.20
2022-10-26T13:01:00.285Z,4.20
2022-10-26T13:02:10.203Z,4.20
2022-10-26T13:03:01.341Z,4.20
2022-10-26T13:04:10.217Z,4.20
2022-10-26T13:05:01.316Z,4.20
2022-10-26T13:06:10.217Z,4.20
2022-10-26T13:07:10.200Z,4.20
2022-10-26T13:08:05.728Z,4.20
2022-10-26T13:09:06.307Z,4.20
2022-10-26T13:10:03.733Z,4.20
2022-10-26T13:11:04.582Z,4.20
2022-10-26T13:12:01.578Z,4.20
2022-10-26T13:13:01.532Z,4.20
2022-10-26T13:14:01.918Z,4.20
2022-10-26T13:15:02.530Z,4.20
2022-10-26T13:16:01.366Z,4.20
2022-10-26T13:17:01.290Z,4.20
2022-10-26T13:18:06.708Z,4.20
2022-10-26T13:19:00.440Z,4.20
2022-10-26T13:20:01.655Z,4.20
2022-10-26T13:21:08.896Z,4.20
2022-10-26T13:22:00.477Z,4.20
2022-10-26T13:24:00.597Z,4.20
2022-10-26T13:25:01.997Z,4.20
2022-10-26T13:26:01.582Z,4.20
2022-10-26T13:27:10.211Z,4.20
2022-10-26T13:28:03.328Z,4.20
2022-10-26T13:29:01.401Z,3.80
2022-10-26T13:30:03.583Z,3.80
2022-10-26T13:31:00.318Z,3.80
2022-10-26T13:32:00.340Z,3.80
2022-10-26T13:33:01.599Z,3.80
2022-10-26T13:34:03.285Z,3.80
2022-10-26T13:35:01.160Z,3.80
2022-10-26T13:36:01.118Z,3.80
2022-10-26T13:37:10.197Z,3.80
2022-10-26T13:38:06.174Z,3.80
2022-10-26T13:39:04.194Z,3.80
2022-10-26T13:40:03.684Z,3.80
2022-10-26T13:41:05.910Z,3.80
2022-10-26T13:42:01.279Z,3.80
2022-10-26T13:43:02.905Z,3.80